sensor_id;sensor_type;location;lat;lon;timestamp;P1;durP1;ratioP1;P2;durP2;ratioP2
49103;SDS011;34915;52.926;11.116;2023-04-24T00:02:11;2.23;;;2.03;;
49103;SDS011;34915;52.926;11.116;2023-04-24T00:04:38;1.60;;;1.50;;
49103;SDS011;34915;52.926;11.116;2023-04-24T00:07:06;1.80;;;1.70;;
49103;SDS011;34915;52.926;11.116;2023-04-24T00:09:32;2.60;;;1.80;;
49103;SDS011;34915;52.926;11.116;2023-04-24T00:11:58;2.60;;;2.00;;
49103;SDS011;34915;52.926;11.116;2023-04-24T00:14:24;2.30;;;2.10;;
49103;SDS011;34915;52.926;11.116;2023-04-24T00:16:50;1.93;;;1.83;;
49103;SDS011;34915;52.926;11.116;2023-04-24T00:19:15;2.27;;;1.57;;
49103;SDS011;34915;52.926;11.116;2023-04-24T00:21:41;1.67;;;1.53;;
49103;SDS011;34915;52.926;11.116;2023-04-24T00:24:07;1.77;;;1.67;;
49103;SDS011;34915;52.926;11.116;2023-04-24T00:26:36;1.77;;;1.67;;
49103;SDS011;34915;52.926;11.116;2023-04-24T00:29:01;2.40;;;2.20;;
49103;SDS011;34915;52.926;11.116;2023-04-24T00:31:27;3.33;;;2.20;;
49103;SDS011;34915;52.926;11.116;2023-04-24T00:33:52;1.63;;;1.50;;
49103;SDS011;34915;52.926;11.116;2023-04-24T00:36:20;1.93;;;1.80;;
49103;SDS011;34915;52.926;11.116;2023-04-24T00:38:46;2.30;;;2.10;;
49103;SDS011;34915;52.926;11.116;2023-04-24T00:41:11;3.50;;;2.10;;
49103;SDS011;34915;52.926;11.116;2023-04-24T00:43:37;2.47;;;1.70;;
49103;SDS011;34915;52.926;11.116;2023-04-24T00:46:04;2.47;;;2.10;;
49103;SDS011;34915;52.926;11.116;2023-04-24T00:48:29;1.70;;;1.60;;
49103;SDS011;34915;52.926;11.116;2023-04-24T00:50:56;3.43;;;1.80;;
49103;SDS011;34915;52.926;11.116;2023-04-24T00:53:23;1.77;;;1.67;;
49103;SDS011;34915;52.926;11.116;2023-04-24T00:55:49;4.77;;;1.73;;
49103;SDS011;34915;52.926;11.116;2023-04-24T00:58:15;3.27;;;1.63;;
49103;SDS011;34915;52.926;11.116;2023-04-24T01:00:41;2.13;;;1.93;;
49103;SDS011;34915;52.926;11.116;2023-04-24T01:03:06;1.67;;;1.57;;
49103;SDS011;34915;52.926;11.116;2023-04-24T01:05:33;2.40;;;2.00;;
49103;SDS011;34915;52.926;11.116;2023-04-24T01:07:59;2.27;;;2.07;;
49103;SDS011;34915;52.926;11.116;2023-04-24T01:10:26;2.70;;;1.93;;
49103;SDS011;34915;52.926;11.116;2023-04-24T01:12:54;2.43;;;2.20;;
49103;SDS011;34915;52.926;11.116;2023-04-24T01:15:20;1.70;;;1.60;;
49103;SDS011;34915;52.926;11.116;2023-04-24T01:17:46;1.83;;;1.73;;
49103;SDS011;34915;52.926;11.116;2023-04-24T01:20:12;1.73;;;1.60;;
49103;SDS011;34915;52.926;11.116;2023-04-24T01:22:38;2.10;;;1.83;;
49103;SDS011;34915;52.926;11.116;2023-04-24T01:25:04;2.73;;;1.60;;
49103;SDS011;34915;52.926;11.116;2023-04-24T01:27:30;2.10;;;1.90;;
49103;SDS011;34915;52.926;11.116;2023-04-24T01:29:56;1.60;;;1.50;;
49103;SDS011;34915;52.926;11.116;2023-04-24T01:32:22;1.70;;;1.60;;
49103;SDS011;34915;52.926;11.116;2023-04-24T01:34:49;2.70;;;1.87;;
49103;SDS011;34915;52.926;11.116;2023-04-24T01:37:16;2.13;;;1.93;;
49103;SDS011;34915;52.926;11.116;2023-04-24T01:39:42;3.23;;;2.00;;
49103;SDS011;34915;52.926;11.116;2023-04-24T01:42:08;2.50;;;2.30;;
49103;SDS011;34915;52.926;11.116;2023-04-24T01:44:34;2.30;;;2.00;;
49103;SDS011;34915;52.926;11.116;2023-04-24T01:47:00;2.20;;;2.00;;
49103;SDS011;34915;52.926;11.116;2023-04-24T01:49:26;2.37;;;2.10;;
49103;SDS011;34915;52.926;11.116;2023-04-24T01:51:52;2.07;;;1.93;;
49103;SDS011;34915;52.926;11.116;2023-04-24T01:54:18;2.23;;;1.97;;
49103;SDS011;34915;52.926;11.116;2023-04-24T01:56:44;1.60;;;1.50;;
49103;SDS011;34915;52.926;11.116;2023-04-24T01:59:11;2.73;;;2.03;;
49103;SDS011;34915;52.926;11.116;2023-04-24T02:01:37;3.40;;;2.07;;
49103;SDS011;34915;52.926;11.116;2023-04-24T02:04:06;2.80;;;2.30;;
49103;SDS011;34915;52.926;11.116;2023-04-24T02:06:32;2.23;;;2.03;;
49103;SDS011;34915;52.926;11.116;2023-04-24T02:08:58;1.97;;;1.87;;
49103;SDS011;34915;52.926;11.116;2023-04-24T02:11:24;2.27;;;2.07;;
49103;SDS011;34915;52.926;11.116;2023-04-24T02:13:50;2.53;;;2.33;;
49103;SDS011;34915;52.926;11.116;2023-04-24T02:16:16;3.27;;;2.30;;
49103;SDS011;34915;52.926;11.116;2023-04-24T02:18:42;2.47;;;2.10;;
49103;SDS011;34915;52.926;11.116;2023-04-24T02:21:08;2.90;;;2.23;;
49103;SDS011;34915;52.926;11.116;2023-04-24T02:23:34;1.90;;;1.80;;
49103;SDS011;34915;52.926;11.116;2023-04-24T02:25:59;2.40;;;1.93;;
49103;SDS011;34915;52.926;11.116;2023-04-24T02:28:25;1.87;;;1.73;;
49103;SDS011;34915;52.926;11.116;2023-04-24T02:30:51;2.00;;;1.70;;
49103;SDS011;34915;52.926;11.116;2023-04-24T02:33:16;1.77;;;1.67;;
49103;SDS011;34915;52.926;11.116;2023-04-24T02:35:42;2.43;;;1.80;;
49103;SDS011;34915;52.926;11.116;2023-04-24T02:38:07;2.07;;;1.60;;
49103;SDS011;34915;52.926;11.116;2023-04-24T02:40:33;1.43;;;1.33;;
49103;SDS011;34915;52.926;11.116;2023-04-24T02:42:59;2.90;;;1.33;;
49103;SDS011;34915;52.926;11.116;2023-04-24T02:45:24;1.23;;;1.13;;
49103;SDS011;34915;52.926;11.116;2023-04-24T02:47:50;1.20;;;1.10;;
49103;SDS011;34915;52.926;11.116;2023-04-24T02:50:15;1.40;;;1.30;;
49103;SDS011;34915;52.926;11.116;2023-04-24T02:52:41;1.13;;;1.13;;
49103;SDS011;34915;52.926;11.116;2023-04-24T02:55:06;1.00;;;1.00;;
49103;SDS011;34915;52.926;11.116;2023-04-24T02:57:33;1.97;;;1.30;;
49103;SDS011;34915;52.926;11.116;2023-04-24T02:59:59;0.90;;;0.87;;
49103;SDS011;34915;52.926;11.116;2023-04-24T03:02:24;1.40;;;1.30;;
49103;SDS011;34915;52.926;11.116;2023-04-24T03:04:50;0.87;;;0.87;;
49103;SDS011;34915;52.926;11.116;2023-04-24T03:07:15;1.43;;;1.33;;
49103;SDS011;34915;52.926;11.116;2023-04-24T03:09:41;1.47;;;1.23;;
49103;SDS011;34915;52.926;11.116;2023-04-24T03:12:07;1.00;;;1.00;;
49103;SDS011;34915;52.926;11.116;2023-04-24T03:14:32;1.13;;;0.90;;
49103;SDS011;34915;52.926;11.116;2023-04-24T03:16:58;0.90;;;0.73;;
49103;SDS011;34915;52.926;11.116;2023-04-24T03:19:24;0.77;;;0.70;;
49103;SDS011;34915;52.926;11.116;2023-04-24T03:21:49;2.53;;;1.10;;
49103;SDS011;34915;52.926;11.116;2023-04-24T03:24:15;1.40;;;1.07;;
49103;SDS011;34915;52.926;11.116;2023-04-24T03:26:41;1.00;;;1.00;;
49103;SDS011;34915;52.926;11.116;2023-04-24T03:29:06;1.30;;;1.20;;
49103;SDS011;34915;52.926;11.116;2023-04-24T03:31:32;0.93;;;0.90;;
49103;SDS011;34915;52.926;11.116;2023-04-24T03:33:58;1.00;;;0.70;;
49103;SDS011;34915;52.926;11.116;2023-04-24T03:36:23;1.27;;;0.73;;
49103;SDS011;34915;52.926;11.116;2023-04-24T03:38:49;0.80;;;0.80;;
49103;SDS011;34915;52.926;11.116;2023-04-24T03:41:15;1.10;;;1.00;;
49103;SDS011;34915;52.926;11.116;2023-04-24T03:43:40;1.47;;;1.00;;
49103;SDS011;34915;52.926;11.116;2023-04-24T03:46:06;1.17;;;0.90;;
49103;SDS011;34915;52.926;11.116;2023-04-24T03:48:34;1.90;;;0.90;;
49103;SDS011;34915;52.926;11.116;2023-04-24T03:51:00;0.80;;;0.80;;
49103;SDS011;34915;52.926;11.116;2023-04-24T03:53:25;3.50;;;0.90;;
49103;SDS011;34915;52.926;11.116;2023-04-24T03:55:52;0.87;;;0.87;;
49103;SDS011;34915;52.926;11.116;2023-04-24T03:58:18;0.80;;;0.80;;
49103;SDS011;34915;52.926;11.116;2023-04-24T04:00:47;1.10;;;1.00;;
49103;SDS011;34915;52.926;11.116;2023-04-24T04:03:13;0.90;;;0.90;;
49103;SDS011;34915;52.926;11.116;2023-04-24T04:05:39;1.70;;;1.03;;
49103;SDS011;34915;52.926;11.116;2023-04-24T04:08:05;1.50;;;0.87;;
49103;SDS011;34915;52.926;11.116;2023-04-24T04:10:31;1.00;;;0.90;;
49103;SDS011;34915;52.926;11.116;2023-04-24T04:12:56;1.07;;;0.97;;
49103;SDS011;34915;52.926;11.116;2023-04-24T04:15:22;0.63;;;0.63;;
49103;SDS011;34915;52.926;11.116;2023-04-24T04:17:48;1.03;;;0.90;;
49103;SDS011;34915;52.926;11.116;2023-04-24T04:20:14;1.27;;;0.80;;
49103;SDS011;34915;52.926;11.116;2023-04-24T04:22:39;4.00;;;1.00;;
49103;SDS011;34915;52.926;11.116;2023-04-24T04:25:05;0.80;;;0.80;;
49103;SDS011;34915;52.926;11.116;2023-04-24T04:27:31;1.03;;;0.70;;
49103;SDS011;34915;52.926;11.116;2023-04-24T04:29:58;1.00;;;1.00;;
49103;SDS011;34915;52.926;11.116;2023-04-24T04:32:31;1.50;;;0.80;;
49103;SDS011;34915;52.926;11.116;2023-04-24T04:34:58;2.20;;;0.70;;
49103;SDS011;34915;52.926;11.116;2023-04-24T04:37:28;1.20;;;0.70;;
49103;SDS011;34915;52.926;11.116;2023-04-24T04:39:59;3.50;;;1.37;;
49103;SDS011;34915;52.926;11.116;2023-04-24T04:42:25;0.90;;;0.90;;
49103;SDS011;34915;52.926;11.116;2023-04-24T04:44:52;0.70;;;0.60;;
49103;SDS011;34915;52.926;11.116;2023-04-24T04:47:18;0.77;;;0.73;;
49103;SDS011;34915;52.926;11.116;2023-04-24T04:49:48;0.80;;;0.80;;
49103;SDS011;34915;52.926;11.116;2023-04-24T04:52:14;1.00;;;0.90;;
49103;SDS011;34915;52.926;11.116;2023-04-24T04:54:39;0.73;;;0.73;;
49103;SDS011;34915;52.926;11.116;2023-04-24T04:57:05;0.67;;;0.60;;
49103;SDS011;34915;52.926;11.116;2023-04-24T04:59:31;0.67;;;0.60;;
49103;SDS011;34915;52.926;11.116;2023-04-24T05:01:57;2.90;;;0.50;;
49103;SDS011;34915;52.926;11.116;2023-04-24T05:04:22;0.80;;;0.80;;
49103;SDS011;34915;52.926;11.116;2023-04-24T05:06:48;0.87;;;0.67;;
49103;SDS011;34915;52.926;11.116;2023-04-24T05:09:16;0.60;;;0.60;;
49103;SDS011;34915;52.926;11.116;2023-04-24T05:11:41;1.03;;;0.70;;
49103;SDS011;34915;52.926;11.116;2023-04-24T05:14:07;0.87;;;0.87;;
49103;SDS011;34915;52.926;11.116;2023-04-24T05:16:33;1.03;;;0.70;;
49103;SDS011;34915;52.926;11.116;2023-04-24T05:18:58;2.83;;;0.77;;
49103;SDS011;34915;52.926;11.116;2023-04-24T05:21:24;1.63;;;0.60;;
49103;SDS011;34915;52.926;11.116;2023-04-24T05:23:52;2.87;;;0.80;;
49103;SDS011;34915;52.926;11.116;2023-04-24T05:26:18;0.60;;;0.60;;
49103;SDS011;34915;52.926;11.116;2023-04-24T05:28:44;1.03;;;0.70;;
49103;SDS011;34915;52.926;11.116;2023-04-24T05:31:12;0.40;;;0.40;;
49103;SDS011;34915;52.926;11.116;2023-04-24T05:33:38;0.50;;;0.50;;
49103;SDS011;34915;52.926;11.116;2023-04-24T05:36:03;1.73;;;0.70;;
49103;SDS011;34915;52.926;11.116;2023-04-24T05:38:30;0.90;;;0.83;;
49103;SDS011;34915;52.926;11.116;2023-04-24T05:40:56;0.40;;;0.40;;
49103;SDS011;34915;52.926;11.116;2023-04-24T05:43:21;0.63;;;0.60;;
49103;SDS011;34915;52.926;11.116;2023-04-24T05:45:47;0.70;;;0.70;;
49103;SDS011;34915;52.926;11.116;2023-04-24T05:48:13;0.90;;;0.70;;
49103;SDS011;34915;52.926;11.116;2023-04-24T05:50:40;0.43;;;0.43;;
49103;SDS011;34915;52.926;11.116;2023-04-24T05:53:06;0.53;;;0.53;;
49103;SDS011;34915;52.926;11.116;2023-04-24T05:55:32;0.70;;;0.70;;
49103;SDS011;34915;52.926;11.116;2023-04-24T05:57:58;0.50;;;0.50;;
49103;SDS011;34915;52.926;11.116;2023-04-24T06:00:24;0.60;;;0.60;;
49103;SDS011;34915;52.926;11.116;2023-04-24T06:02:50;1.53;;;0.83;;
49103;SDS011;34915;52.926;11.116;2023-04-24T06:05:17;0.30;;;0.30;;
49103;SDS011;34915;52.926;11.116;2023-04-24T06:07:43;1.50;;;0.77;;
49103;SDS011;34915;52.926;11.116;2023-04-24T06:10:09;0.50;;;0.50;;
49103;SDS011;34915;52.926;11.116;2023-04-24T06:12:35;0.63;;;0.60;;
49103;SDS011;34915;52.926;11.116;2023-04-24T06:15:01;0.60;;;0.60;;
49103;SDS011;34915;52.926;11.116;2023-04-24T06:17:27;0.57;;;0.57;;
49103;SDS011;34915;52.926;11.116;2023-04-24T06:19:53;0.90;;;0.67;;
49103;SDS011;34915;52.926;11.116;2023-04-24T06:22:18;2.13;;;0.80;;
49103;SDS011;34915;52.926;11.116;2023-04-24T06:24:44;0.53;;;0.53;;
49103;SDS011;34915;52.926;11.116;2023-04-24T06:27:10;0.87;;;0.67;;
49103;SDS011;34915;52.926;11.116;2023-04-24T06:29:36;0.70;;;0.70;;
49103;SDS011;34915;52.926;11.116;2023-04-24T06:32:02;0.60;;;0.60;;
49103;SDS011;34915;52.926;11.116;2023-04-24T06:34:29;0.77;;;0.70;;
49103;SDS011;34915;52.926;11.116;2023-04-24T06:36:56;1.03;;;0.60;;
49103;SDS011;34915;52.926;11.116;2023-04-24T06:39:21;2.60;;;0.80;;
49103;SDS011;34915;52.926;11.116;2023-04-24T06:41:47;0.70;;;0.70;;
49103;SDS011;34915;52.926;11.116;2023-04-24T06:44:12;0.60;;;0.60;;
49103;SDS011;34915;52.926;11.116;2023-04-24T06:46:40;0.60;;;0.60;;
49103;SDS011;34915;52.926;11.116;2023-04-24T06:49:06;1.10;;;0.60;;
49103;SDS011;34915;52.926;11.116;2023-04-24T06:51:31;1.90;;;0.80;;
49103;SDS011;34915;52.926;11.116;2023-04-24T06:53:58;0.70;;;0.70;;
49103;SDS011;34915;52.926;11.116;2023-04-24T06:56:23;0.70;;;0.70;;
49103;SDS011;34915;52.926;11.116;2023-04-24T06:58:49;0.67;;;0.67;;
49103;SDS011;34915;52.926;11.116;2023-04-24T07:01:14;2.17;;;0.80;;
49103;SDS011;34915;52.926;11.116;2023-04-24T07:03:42;0.63;;;0.60;;
49103;SDS011;34915;52.926;11.116;2023-04-24T07:06:08;0.40;;;0.40;;
49103;SDS011;34915;52.926;11.116;2023-04-24T07:08:35;0.53;;;0.53;;
49103;SDS011;34915;52.926;11.116;2023-04-24T07:11:00;0.73;;;0.60;;
49103;SDS011;34915;52.926;11.116;2023-04-24T07:13:26;1.00;;;0.67;;
49103;SDS011;34915;52.926;11.116;2023-04-24T07:15:53;0.50;;;0.50;;
49103;SDS011;34915;52.926;11.116;2023-04-24T07:18:20;0.37;;;0.30;;
49103;SDS011;34915;52.926;11.116;2023-04-24T07:20:46;0.83;;;0.70;;
49103;SDS011;34915;52.926;11.116;2023-04-24T07:23:12;1.30;;;0.43;;
49103;SDS011;34915;52.926;11.116;2023-04-24T07:25:38;0.47;;;0.47;;
49103;SDS011;34915;52.926;11.116;2023-04-24T07:28:04;0.50;;;0.50;;
49103;SDS011;34915;52.926;11.116;2023-04-24T07:30:30;0.30;;;0.30;;
49103;SDS011;34915;52.926;11.116;2023-04-24T07:32:58;0.43;;;0.43;;
49103;SDS011;34915;52.926;11.116;2023-04-24T07:35:24;0.50;;;0.40;;
49103;SDS011;34915;52.926;11.116;2023-04-24T07:37:51;0.50;;;0.50;;
49103;SDS011;34915;52.926;11.116;2023-04-24T07:40:18;0.30;;;0.30;;
49103;SDS011;34915;52.926;11.116;2023-04-24T07:42:43;1.10;;;0.60;;
49103;SDS011;34915;52.926;11.116;2023-04-24T07:45:09;0.50;;;0.50;;
49103;SDS011;34915;52.926;11.116;2023-04-24T07:47:35;1.33;;;0.90;;
49103;SDS011;34915;52.926;11.116;2023-04-24T07:50:02;0.60;;;0.60;;
49103;SDS011;34915;52.926;11.116;2023-04-24T07:52:28;0.47;;;0.47;;
49103;SDS011;34915;52.926;11.116;2023-04-24T07:54:54;0.63;;;0.60;;
49103;SDS011;34915;52.926;11.116;2023-04-24T07:57:24;0.77;;;0.60;;
49103;SDS011;34915;52.926;11.116;2023-04-24T07:59:50;0.97;;;0.67;;
49103;SDS011;34915;52.926;11.116;2023-04-24T08:02:16;0.57;;;0.57;;
49103;SDS011;34915;52.926;11.116;2023-04-24T08:04:41;0.50;;;0.50;;
49103;SDS011;34915;52.926;11.116;2023-04-24T08:07:07;0.60;;;0.60;;
49103;SDS011;34915;52.926;11.116;2023-04-24T08:09:33;2.00;;;0.70;;
49103;SDS011;34915;52.926;11.116;2023-04-24T08:11:59;0.50;;;0.50;;
49103;SDS011;34915;52.926;11.116;2023-04-24T08:14:24;0.47;;;0.47;;
49103;SDS011;34915;52.926;11.116;2023-04-24T08:16:50;0.40;;;0.40;;
49103;SDS011;34915;52.926;11.116;2023-04-24T08:19:17;0.50;;;0.50;;
49103;SDS011;34915;52.926;11.116;2023-04-24T08:21:42;1.20;;;0.60;;
49103;SDS011;34915;52.926;11.116;2023-04-24T08:24:08;1.17;;;0.70;;
49103;SDS011;34915;52.926;11.116;2023-04-24T08:26:34;0.73;;;0.50;;
49103;SDS011;34915;52.926;11.116;2023-04-24T08:28:59;0.60;;;0.60;;
49103;SDS011;34915;52.926;11.116;2023-04-24T08:31:25;0.50;;;0.50;;
49103;SDS011;34915;52.926;11.116;2023-04-24T08:33:51;2.43;;;0.47;;
49103;SDS011;34915;52.926;11.116;2023-04-24T08:36:16;0.40;;;0.40;;
49103;SDS011;34915;52.926;11.116;2023-04-24T08:38:43;1.07;;;0.60;;
49103;SDS011;34915;52.926;11.116;2023-04-24T08:41:11;1.00;;;0.40;;
49103;SDS011;34915;52.926;11.116;2023-04-24T08:43:39;0.40;;;0.40;;
49103;SDS011;34915;52.926;11.116;2023-04-24T08:46:05;0.30;;;0.30;;
49103;SDS011;34915;52.926;11.116;2023-04-24T08:48:31;0.50;;;0.50;;
49103;SDS011;34915;52.926;11.116;2023-04-24T08:50:58;0.50;;;0.50;;
49103;SDS011;34915;52.926;11.116;2023-04-24T08:53:25;0.73;;;0.53;;
49103;SDS011;34915;52.926;11.116;2023-04-24T08:55:54;0.90;;;0.40;;
49103;SDS011;34915;52.926;11.116;2023-04-24T08:58:21;1.43;;;0.40;;
49103;SDS011;34915;52.926;11.116;2023-04-24T09:00:47;1.00;;;0.60;;
49103;SDS011;34915;52.926;11.116;2023-04-24T09:03:13;0.80;;;0.40;;
49103;SDS011;34915;52.926;11.116;2023-04-24T09:05:41;2.30;;;0.60;;
49103;SDS011;34915;52.926;11.116;2023-04-24T09:08:10;0.70;;;0.50;;
49103;SDS011;34915;52.926;11.116;2023-04-24T09:10:39;0.80;;;0.50;;
49103;SDS011;34915;52.926;11.116;2023-04-24T09:13:07;0.37;;;0.37;;
49103;SDS011;34915;52.926;11.116;2023-04-24T09:15:37;0.60;;;0.60;;
49103;SDS011;34915;52.926;11.116;2023-04-24T09:18:03;0.93;;;0.60;;
49103;SDS011;34915;52.926;11.116;2023-04-24T09:20:29;0.30;;;0.30;;
49103;SDS011;34915;52.926;11.116;2023-04-24T09:22:56;0.50;;;0.50;;
49103;SDS011;34915;52.926;11.116;2023-04-24T09:25:23;0.80;;;0.67;;
49103;SDS011;34915;52.926;11.116;2023-04-24T09:27:58;1.43;;;0.53;;
49103;SDS011;34915;52.926;11.116;2023-04-24T09:30:26;0.60;;;0.50;;
49103;SDS011;34915;52.926;11.116;2023-04-24T09:33:25;0.60;;;0.60;;
49103;SDS011;34915;52.926;11.116;2023-04-24T09:35:51;0.70;;;0.70;;
49103;SDS011;34915;52.926;11.116;2023-04-24T09:38:17;0.53;;;0.53;;
49103;SDS011;34915;52.926;11.116;2023-04-24T09:40:43;1.27;;;0.93;;
49103;SDS011;34915;52.926;11.116;2023-04-24T09:43:11;0.70;;;0.70;;
49103;SDS011;34915;52.926;11.116;2023-04-24T09:45:38;2.83;;;1.00;;
49103;SDS011;34915;52.926;11.116;2023-04-24T09:48:05;1.57;;;1.20;;
49103;SDS011;34915;52.926;11.116;2023-04-24T09:50:34;1.10;;;1.00;;
49103;SDS011;34915;52.926;11.116;2023-04-24T09:53:03;2.23;;;1.20;;
49103;SDS011;34915;52.926;11.116;2023-04-24T09:55:29;1.30;;;1.20;;
49103;SDS011;34915;52.926;11.116;2023-04-24T09:57:56;1.97;;;1.43;;
49103;SDS011;34915;52.926;11.116;2023-04-24T10:03:00;1.30;;;1.20;;
49103;SDS011;34915;52.926;11.116;2023-04-24T10:05:30;4.00;;;1.33;;
49103;SDS011;34915;52.926;11.116;2023-04-24T10:10:28;1.47;;;1.37;;
49103;SDS011;34915;52.926;11.116;2023-04-24T10:12:56;1.33;;;1.23;;
49103;SDS011;34915;52.926;11.116;2023-04-24T10:15:22;1.30;;;1.20;;
49103;SDS011;34915;52.926;11.116;2023-04-24T10:17:49;1.37;;;1.27;;
49103;SDS011;34915;52.926;11.116;2023-04-24T10:20:21;1.03;;;1.03;;
49103;SDS011;34915;52.926;11.116;2023-04-24T10:22:49;2.10;;;1.50;;
49103;SDS011;34915;52.926;11.116;2023-04-24T10:25:17;2.43;;;1.80;;
49103;SDS011;34915;52.926;11.116;2023-04-24T10:27:45;1.73;;;1.63;;
49103;SDS011;34915;52.926;11.116;2023-04-24T10:30:12;2.17;;;1.93;;
49103;SDS011;34915;52.926;11.116;2023-04-24T10:32:38;2.23;;;2.03;;
49103;SDS011;34915;52.926;11.116;2023-04-24T10:35:04;1.97;;;1.87;;
49103;SDS011;34915;52.926;11.116;2023-04-24T10:37:35;2.53;;;1.83;;
49103;SDS011;34915;52.926;11.116;2023-04-24T10:40:03;2.53;;;2.33;;
49103;SDS011;34915;52.926;11.116;2023-04-24T10:42:30;1.97;;;1.87;;
49103;SDS011;34915;52.926;11.116;2023-04-24T10:44:56;2.50;;;2.30;;
49103;SDS011;34915;52.926;11.116;2023-04-24T10:47:23;3.13;;;2.87;;
49103;SDS011;34915;52.926;11.116;2023-04-24T10:49:50;1.80;;;1.70;;
49103;SDS011;34915;52.926;11.116;2023-04-24T10:52:16;2.93;;;2.20;;
49103;SDS011;34915;52.926;11.116;2023-04-24T10:54:43;2.20;;;2.00;;
49103;SDS011;34915;52.926;11.116;2023-04-24T10:59:46;2.53;;;2.27;;
49103;SDS011;34915;52.926;11.116;2023-04-24T11:02:15;2.07;;;1.90;;
49103;SDS011;34915;52.926;11.116;2023-04-24T11:04:41;2.47;;;2.27;;
49103;SDS011;34915;52.926;11.116;2023-04-24T11:07:11;2.73;;;2.40;;
49103;SDS011;34915;52.926;11.116;2023-04-24T11:09:37;2.90;;;2.40;;
49103;SDS011;34915;52.926;11.116;2023-04-24T11:12:09;4.23;;;2.30;;
49103;SDS011;34915;52.926;11.116;2023-04-24T11:17:53;2.03;;;1.83;;
49103;SDS011;34915;52.926;11.116;2023-04-24T11:20:16;2.63;;;2.30;;
49103;SDS011;34915;52.926;11.116;2023-04-24T11:22:42;1.80;;;1.70;;
49103;SDS011;34915;52.926;11.116;2023-04-24T11:25:08;2.33;;;2.13;;
49103;SDS011;34915;52.926;11.116;2023-04-24T11:27:43;2.90;;;2.13;;
49103;SDS011;34915;52.926;11.116;2023-04-24T11:30:11;2.33;;;2.13;;
49103;SDS011;34915;52.926;11.116;2023-04-24T11:32:40;2.13;;;1.93;;
49103;SDS011;34915;52.926;11.116;2023-04-24T11:37:51;3.03;;;2.13;;
49103;SDS011;34915;52.926;11.116;2023-04-24T11:40:18;3.03;;;2.70;;
49103;SDS011;34915;52.926;11.116;2023-04-24T11:42:48;3.50;;;2.50;;
49103;SDS011;34915;52.926;11.116;2023-04-24T11:45:17;3.37;;;2.80;;
49103;SDS011;34915;52.926;11.116;2023-04-24T11:47:50;2.90;;;2.60;;
49103;SDS011;34915;52.926;11.116;2023-04-24T11:50:17;2.93;;;2.73;;
49103;SDS011;34915;52.926;11.116;2023-04-24T11:52:44;2.97;;;2.67;;
49103;SDS011;34915;52.926;11.116;2023-04-24T11:57:47;2.97;;;2.67;;
49103;SDS011;34915;52.926;11.116;2023-04-24T12:00:17;6.03;;;2.33;;
49103;SDS011;34915;52.926;11.116;2023-04-24T12:02:43;2.40;;;2.20;;
49103;SDS011;34915;52.926;11.116;2023-04-24T12:05:31;2.87;;;1.90;;
49103;SDS011;34915;52.926;11.116;2023-04-24T12:07:59;2.30;;;2.10;;
49103;SDS011;34915;52.926;11.116;2023-04-24T12:10:26;2.13;;;1.90;;
49103;SDS011;34915;52.926;11.116;2023-04-24T12:12:53;1.87;;;1.77;;
49103;SDS011;34915;52.926;11.116;2023-04-24T12:15:21;2.00;;;1.80;;
49103;SDS011;34915;52.926;11.116;2023-04-24T12:17:47;3.43;;;2.00;;
49103;SDS011;34915;52.926;11.116;2023-04-24T12:20:15;2.63;;;2.30;;
49103;SDS011;34915;52.926;11.116;2023-04-24T12:22:48;1.70;;;1.60;;
49103;SDS011;34915;52.926;11.116;2023-04-24T12:25:16;2.20;;;1.70;;
49103;SDS011;34915;52.926;11.116;2023-04-24T12:27:43;1.17;;;1.10;;
49103;SDS011;34915;52.926;11.116;2023-04-24T12:30:11;1.00;;;0.83;;
49103;SDS011;34915;52.926;11.116;2023-04-24T12:32:42;1.23;;;1.13;;
49103;SDS011;34915;52.926;11.116;2023-04-24T12:35:08;1.40;;;1.20;;
49103;SDS011;34915;52.926;11.116;2023-04-24T12:37:34;1.87;;;1.40;;
49103;SDS011;34915;52.926;11.116;2023-04-24T12:40:02;1.50;;;1.40;;
49103;SDS011;34915;52.926;11.116;2023-04-24T12:42:31;1.37;;;1.10;;
49103;SDS011;34915;52.926;11.116;2023-04-24T12:44:57;1.10;;;1.00;;
49103;SDS011;34915;52.926;11.116;2023-04-24T12:47:24;1.20;;;1.10;;
49103;SDS011;34915;52.926;11.116;2023-04-24T12:49:50;1.60;;;1.27;;
49103;SDS011;34915;52.926;11.116;2023-04-24T12:52:23;0.90;;;0.90;;
49103;SDS011;34915;52.926;11.116;2023-04-24T12:54:51;2.33;;;1.10;;
49103;SDS011;34915;52.926;11.116;2023-04-24T12:57:18;1.20;;;1.10;;
49103;SDS011;34915;52.926;11.116;2023-04-24T12:59:46;1.13;;;0.70;;
49103;SDS011;34915;52.926;11.116;2023-04-24T13:02:12;1.03;;;0.93;;
49103;SDS011;34915;52.926;11.116;2023-04-24T13:04:40;0.90;;;0.90;;
49103;SDS011;34915;52.926;11.116;2023-04-24T13:07:05;0.70;;;0.70;;
49103;SDS011;34915;52.926;11.116;2023-04-24T13:09:31;0.80;;;0.80;;
49103;SDS011;34915;52.926;11.116;2023-04-24T13:11:57;0.80;;;0.70;;
49103;SDS011;34915;52.926;11.116;2023-04-24T13:14:23;0.83;;;0.83;;
49103;SDS011;34915;52.926;11.116;2023-04-24T13:16:49;0.70;;;0.70;;
49103;SDS011;34915;52.926;11.116;2023-04-24T13:19:14;0.70;;;0.70;;
49103;SDS011;34915;52.926;11.116;2023-04-24T13:21:40;0.90;;;0.90;;
49103;SDS011;34915;52.926;11.116;2023-04-24T13:24:06;0.70;;;0.70;;
49103;SDS011;34915;52.926;11.116;2023-04-24T13:26:33;0.80;;;0.80;;
49103;SDS011;34915;52.926;11.116;2023-04-24T13:28:58;1.00;;;1.00;;
49103;SDS011;34915;52.926;11.116;2023-04-24T13:31:24;0.83;;;0.80;;
49103;SDS011;34915;52.926;11.116;2023-04-24T13:33:50;0.90;;;0.90;;
49103;SDS011;34915;52.926;11.116;2023-04-24T13:36:16;1.20;;;1.10;;
49103;SDS011;34915;52.926;11.116;2023-04-24T13:38:43;1.00;;;0.90;;
49103;SDS011;34915;52.926;11.116;2023-04-24T13:41:09;1.17;;;1.10;;
49103;SDS011;34915;52.926;11.116;2023-04-24T13:43:35;2.13;;;1.17;;
49103;SDS011;34915;52.926;11.116;2023-04-24T13:46:01;1.13;;;0.63;;
49103;SDS011;34915;52.926;11.116;2023-04-24T13:48:28;1.67;;;0.70;;
49103;SDS011;34915;52.926;11.116;2023-04-24T13:50:54;2.30;;;0.90;;
49103;SDS011;34915;52.926;11.116;2023-04-24T13:53:20;2.47;;;0.90;;
49103;SDS011;34915;52.926;11.116;2023-04-24T13:55:45;0.50;;;0.50;;
49103;SDS011;34915;52.926;11.116;2023-04-24T13:58:11;0.70;;;0.70;;
49103;SDS011;34915;52.926;11.116;2023-04-24T14:00:37;0.63;;;0.63;;
49103;SDS011;34915;52.926;11.116;2023-04-24T14:03:02;0.50;;;0.50;;
49103;SDS011;34915;52.926;11.116;2023-04-24T14:05:28;0.80;;;0.70;;
49103;SDS011;34915;52.926;11.116;2023-04-24T14:07:53;1.10;;;1.00;;
49103;SDS011;34915;52.926;11.116;2023-04-24T14:10:19;0.47;;;0.47;;
49103;SDS011;34915;52.926;11.116;2023-04-24T14:12:45;0.37;;;0.37;;
49103;SDS011;34915;52.926;11.116;2023-04-24T14:15:10;0.70;;;0.40;;
49103;SDS011;34915;52.926;11.116;2023-04-24T14:17:37;0.60;;;0.60;;
49103;SDS011;34915;52.926;11.116;2023-04-24T14:20:02;0.57;;;0.57;;
49103;SDS011;34915;52.926;11.116;2023-04-24T14:22:29;0.70;;;0.70;;
49103;SDS011;34915;52.926;11.116;2023-04-24T14:24:55;0.63;;;0.63;;
49103;SDS011;34915;52.926;11.116;2023-04-24T14:27:21;0.90;;;0.70;;
49103;SDS011;34915;52.926;11.116;2023-04-24T14:29:46;0.60;;;0.60;;
49103;SDS011;34915;52.926;11.116;2023-04-24T14:32:12;0.70;;;0.60;;
49103;SDS011;34915;52.926;11.116;2023-04-24T14:34:40;0.83;;;0.83;;
49103;SDS011;34915;52.926;11.116;2023-04-24T14:37:06;0.80;;;0.80;;
49103;SDS011;34915;52.926;11.116;2023-04-24T14:39:31;0.97;;;0.90;;
49103;SDS011;34915;52.926;11.116;2023-04-24T14:41:57;1.03;;;0.90;;
49103;SDS011;34915;52.926;11.116;2023-04-24T14:44:22;1.70;;;1.00;;
49103;SDS011;34915;52.926;11.116;2023-04-24T14:46:48;1.17;;;1.13;;